createdAt,value
2023-02-06T00:02:30.701Z,8.80
2023-02-06T00:05:02.976Z,8.63
2023-02-06T00:07:37.136Z,8.35
2023-02-06T00:10:05.428Z,8.27
2023-02-06T00:12:43.595Z,8.45
2023-02-06T00:15:21.574Z,8.90
2023-02-06T00:17:52.593Z,8.30
2023-02-06T00:20:27.666Z,7.85
2023-02-06T00:22:57.609Z,9.27
2023-02-06T00:25:38.618Z,8.85
2023-02-06T00:28:07.726Z,9.15
2023-02-06T00:30:39.847Z,8.65
2023-02-06T00:33:15.920Z,7.70
2023-02-06T00:35:44.008Z,7.35
2023-02-06T00:38:16.782Z,7.70
2023-02-06T00:41:01.893Z,8.32
2023-02-06T00:43:54.580Z,8.18
2023-02-06T00:46:45.754Z,7.47
2023-02-06T00:49:16.035Z,7.97
2023-02-06T00:51:57.096Z,7.72
2023-02-06T00:54:25.008Z,8.73
2023-02-06T00:56:53.936Z,8.80
2023-02-06T00:59:45.027Z,8.20
2023-02-06T01:02:43.859Z,7.05
2023-02-06T01:05:28.485Z,7.68
2023-02-06T01:08:06.623Z,7.28
2023-02-06T01:11:01.608Z,7.30
2023-02-06T01:13:55.894Z,7.78
2023-02-06T01:16:37.902Z,7.55
2023-02-06T01:19:11.878Z,7.38
2023-02-06T01:21:45.695Z,7.05
2023-02-06T01:24:19.642Z,7.78
2023-02-06T01:26:47.424Z,8.18
2023-02-06T01:29:17.342Z,8.00
2023-02-06T01:32:26.251Z,7.25
2023-02-06T01:35:00.104Z,7.22
2023-02-06T01:37:32.093Z,7.22
2023-02-06T01:39:59.946Z,6.65
2023-02-06T01:42:35.571Z,7.97
2023-02-06T01:45:38.702Z,7.43
2023-02-06T01:48:08.917Z,6.97
2023-02-06T01:50:47.665Z,7.47
2023-02-06T01:53:18.144Z,6.90
2023-02-06T01:55:52.689Z,6.75
2023-02-06T01:58:35.111Z,7.03
2023-02-06T02:01:16.156Z,6.38
2023-02-06T02:04:02.985Z,6.63
2023-02-06T02:06:32.222Z,7.25
2023-02-06T02:09:10.881Z,7.68
2023-02-06T02:11:43.208Z,7.68
2023-02-06T02:14:19.340Z,7.25
2023-02-06T02:17:21.056Z,7.93
2023-02-06T02:20:08.564Z,6.82
2023-02-06T02:26:34.543Z,7.43
2023-02-06T02:29:35.217Z,7.15
2023-02-06T02:32:15.906Z,6.82
2023-02-06T02:34:50.049Z,7.70
2023-02-06T02:37:40.808Z,7.47
2023-02-06T02:40:29.222Z,6.67
2023-02-06T02:43:16.039Z,6.82
2023-02-06T02:45:49.328Z,6.68
2023-02-06T02:48:38.674Z,7.43
2023-02-06T02:51:06.831Z,7.38
2023-02-06T02:53:34.633Z,7.65
2023-02-06T02:56:02.784Z,8.23
2023-02-06T02:58:35.068Z,8.50
2023-02-06T03:01:12.619Z,6.88
2023-02-06T03:03:48.710Z,7.03
2023-02-06T03:06:43.830Z,6.82
2023-02-06T03:09:37.502Z,6.60
2023-02-06T03:12:27.501Z,6.40
2023-02-06T03:14:55.811Z,7.25
2023-02-06T03:17:33.311Z,7.30
2023-02-06T03:20:10.581Z,7.60
2023-02-06T03:22:50.198Z,7.95
2023-02-06T03:25:43.088Z,8.38
2023-02-06T03:28:31.426Z,8.27
2023-02-06T03:31:00.702Z,8.52
2023-02-06T03:33:31.673Z,8.82
2023-02-06T03:36:06.688Z,8.50
2023-02-06T03:38:34.667Z,8.80
2023-02-06T03:41:11.754Z,9.43
2023-02-06T03:43:40.766Z,8.90
2023-02-06T03:46:16.267Z,8.52
2023-02-06T03:49:03.375Z,9.30
2023-02-06T03:51:45.476Z,8.88
2023-02-06T03:54:15.349Z,8.50
2023-02-06T03:56:58.131Z,8.35
2023-02-06T03:59:28.137Z,8.80
2023-02-06T04:02:13.787Z,10.82
2023-02-06T04:05:20.730Z,8.52
2023-02-06T04:07:57.958Z,8.60
2023-02-06T04:10:27.961Z,10.07
2023-02-06T04:13:15.201Z,8.73
2023-02-06T04:15:51.375Z,7.80
2023-02-06T04:18:25.200Z,8.27
2023-02-06T04:20:54.277Z,8.30
2023-02-06T04:23:25.475Z,7.70
2023-02-06T04:26:27.707Z,8.18
2023-02-06T04:29:01.189Z,7.95
2023-02-06T04:31:28.997Z,7.80
2023-02-06T04:33:57.969Z,7.68
2023-02-06T04:36:35.290Z,8.35
2023-02-06T04:39:10.096Z,7.10
2023-02-06T04:41:42.085Z,8.63
2023-02-06T04:44:18.079Z,8.27
2023-02-06T04:46:50.393Z,8.00
2023-02-06T04:49:26.765Z,8.35
2023-02-06T04:52:22.661Z,7.38
2023-02-06T04:55:13.633Z,8.40
2023-02-06T04:57:50.771Z,7.93
2023-02-06T05:00:28.936Z,8.25
2023-02-06T05:02:56.909Z,7.35
2023-02-06T05:05:25.129Z,7.75
2023-02-06T05:08:00.526Z,7.78
2023-02-06T05:10:57.307Z,7.97
2023-02-06T05:13:26.413Z,8.45
2023-02-06T05:16:06.215Z,7.80
2023-02-06T05:18:53.997Z,7.57
2023-02-06T05:21:34.122Z,7.90
2023-02-06T05:24:17.126Z,7.72
2023-02-06T05:26:50.080Z,10.27
2023-02-06T05:29:18.066Z,8.48
2023-02-06T05:32:15.911Z,8.65
2023-02-06T05:34:43.859Z,7.50
2023-02-06T05:37:11.758Z,7.55
2023-02-06T05:39:48.896Z,8.30
2023-02-06T05:42:17.930Z,7.63
2023-02-06T05:44:51.680Z,8.20
2023-02-06T05:47:32.764Z,8.55
2023-02-06T05:50:07.070Z,7.97
2023-02-06T05:52:35.310Z,7.63
2023-02-06T05:55:07.219Z,7.80
2023-02-06T05:57:38.240Z,7.68
2023-02-06T06:00:13.625Z,7.25
2023-02-06T06:02:47.914Z,7.03
2023-02-06T06:05:18.779Z,7.05
2023-02-06T06:07:47.547Z,7.32
2023-02-06T06:10:15.852Z,7.85
2023-02-06T06:12:45.929Z,8.13
2023-02-06T06:15:29.486Z,8.63
2023-02-06T06:17:57.393Z,9.45
2023-02-06T06:20:25.108Z,9.00
2023-02-06T06:23:02.314Z,8.73
2023-02-06T06:25:38.552Z,8.10
2023-02-06T06:28:14.705Z,8.27
2023-02-06T06:30:48.636Z,7.55
2023-02-06T06:33:24.836Z,8.35
2023-02-06T06:36:04.015Z,7.78
2023-02-06T06:38:35.219Z,8.27
2023-02-06T06:41:17.405Z,7.93
2023-02-06T06:43:46.285Z,8.45
2023-02-06T06:46:16.347Z,8.60
2023-02-06T06:48:56.234Z,9.00
2023-02-06T06:51:35.587Z,9.82
2023-02-06T06:54:03.482Z,8.63
2023-02-06T06:56:43.446Z,9.50
2023-02-06T06:59:23.528Z,8.80
2023-02-06T07:01:53.753Z,9.23
2023-02-06T07:04:30.944Z,9.57
2023-02-06T07:06:59.768Z,9.88
2023-02-06T07:09:39.864Z,9.88
2023-02-06T07:12:30.401Z,10.00
2023-02-06T07:15:09.666Z,9.32
2023-02-06T07:17:38.676Z,10.80
2023-02-06T07:20:19.032Z,11.45
2023-02-06T07:22:51.751Z,11.27
2023-02-06T07:25:21.329Z,14.13
2023-02-06T07:27:50.431Z,16.25
2023-02-06T07:30:23.539Z,12.48
2023-02-06T07:33:00.879Z,12.00
2023-02-06T07:35:28.810Z,10.45
2023-02-06T07:37:59.555Z,9.20
2023-02-06T07:40:45.063Z,6.65
2023-02-06T07:43:14.775Z,8.00
2023-02-06T07:45:43.783Z,7.75
2023-02-06T07:48:32.164Z,8.70
2023-02-06T07:51:09.122Z,8.13
2023-02-06T07:53:37.706Z,8.38
2023-02-06T07:56:17.670Z,9.43
2023-02-06T07:58:52.402Z,8.80
2023-02-06T08:01:20.952Z,7.28
2023-02-06T08:03:57.087Z,8.43
2023-02-06T08:06:34.221Z,8.25
2023-02-06T08:09:03.397Z,7.63
2023-02-06T08:11:37.301Z,9.50
2023-02-06T08:14:34.108Z,9.25
2023-02-06T08:17:09.312Z,7.90
2023-02-06T08:19:47.277Z,7.65
2023-02-06T08:22:21.183Z,7.57
2023-02-06T08:25:12.010Z,7.97
2023-02-06T08:27:42.971Z,8.10
2023-02-06T08:30:20.224Z,9.55
2023-02-06T08:32:51.588Z,8.18
2023-02-06T08:35:22.693Z,7.95
2023-02-06T08:37:56.944Z,7.97
2023-02-06T08:40:35.795Z,8.38
2023-02-06T08:43:14.918Z,9.13
2023-02-06T08:45:49.215Z,7.80
2023-02-06T08:48:25.141Z,10.02
2023-02-06T08:51:22.156Z,9.35
2023-02-06T08:54:21.554Z,9.38
2023-02-06T08:56:58.184Z,8.60
2023-02-06T08:59:33.119Z,8.23
2023-02-06T09:02:02.369Z,7.97
2023-02-06T09:04:48.742Z,7.50
2023-02-06T09:07:26.920Z,8.00
2023-02-06T09:09:55.780Z,8.02
2023-02-06T09:12:24.927Z,7.97
2023-02-06T09:15:08.708Z,7.53
2023-02-06T09:17:42.720Z,8.20
2023-02-06T09:20:11.953Z,7.50
2023-02-06T09:22:51.176Z,8.05
2023-02-06T09:25:33.557Z,7.57
2023-02-06T09:28:08.552Z,8.40
2023-02-06T09:31:10.858Z,8.20
2023-02-06T09:34:16.015Z,7.22
2023-02-06T09:37:04.027Z,7.72
2023-02-06T09:39:36.065Z,8.57
2023-02-06T09:42:33.074Z,7.78
2023-02-06T09:48:22.195Z,7.72
2023-02-06T09:50:56.920Z,8.20
2023-02-06T09:53:29.436Z,7.68
2023-02-06T09:56:03.552Z,7.95
2023-02-06T09:58:33.846Z,8.98
2023-02-06T10:01:21.969Z,8.43
2023-02-06T10:03:52.243Z,8.32
2023-02-06T10:06:25.262Z,8.65
2023-02-06T10:09:13.807Z,8.48
2023-02-06T10:12:01.360Z,8.98
2023-02-06T10:14:48.864Z,9.05
2023-02-06T10:17:23.848Z,9.07
2023-02-06T10:20:00.527Z,8.60
2023-02-06T10:22:48.723Z,8.55
2023-02-06T10:25:24.745Z,7.80
2023-02-06T10:28:12.722Z,8.77
2023-02-06T10:34:11.861Z,7.57
2023-02-06T10:37:08.112Z,7.70
2023-02-06T10:39:51.303Z,8.65
2023-02-06T10:42:20.572Z,9.30
2023-02-06T10:45:20.456Z,8.13
2023-02-06T10:48:08.317Z,8.77
2023-02-06T10:50:42.283Z,8.43
2023-02-06T10:53:23.150Z,7.90
2023-02-06T10:56:02.836Z,8.85
2023-02-06T10:58:46.726Z,8.95
2023-02-06T11:01:25.445Z,8.50
2023-02-06T11:03:58.641Z,8.63
2023-02-06T11:06:33.386Z,9.95
2023-02-06T11:09:02.440Z,8.82
2023-02-06T11:11:52.630Z,8.43
2023-02-06T11:14:34.352Z,8.68
2023-02-06T11:17:03.171Z,8.55
2023-02-06T11:19:46.368Z,8.63
2023-02-06T11:22:17.393Z,8.55
2023-02-06T11:25:20.347Z,8.63
2023-02-06T11:27:48.507Z,8.50
2023-02-06T11:30:32.732Z,9.10
2023-02-06T11:33:05.117Z,9.15
2023-02-06T11:35:42.832Z,9.05
2023-02-06T11:38:24.084Z,9.57
2023-02-06T11:40:57.368Z,9.18
2023-02-06T11:43:48.645Z,9.10
2023-02-06T11:46:18.338Z,9.07
2023-02-06T11:48:55.778Z,8.82
2023-02-06T11:51:45.563Z,8.60
2023-02-06T11:54:31.223Z,8.57
2023-02-06T11:57:30.756Z,7.43
2023-02-06T12:03:41.783Z,7.90
2023-02-06T12:06:31.643Z,6.60
2023-02-06T12:09:01.236Z,8.27
2023-02-06T12:11:42.444Z,7.07
2023-02-06T12:14:27.572Z,7.13
2023-02-06T12:17:00.167Z,6.90
2023-02-06T12:19:33.064Z,6.68
2023-02-06T12:22:11.162Z,6.25
2023-02-06T12:25:01.518Z,6.28
2023-02-06T12:27:39.361Z,4.75
2023-02-06T12:30:30.551Z,4.95
2023-02-06T12:33:04.536Z,5.75
2023-02-06T12:35:45.005Z,6.03
2023-02-06T12:38:34.735Z,6.10
2023-02-06T12:41:35.632Z,6.40
2023-02-06T12:44:26.426Z,6.43
2023-02-06T12:47:26.461Z,5.93
2023-02-06T12:50:18.054Z,5.40
2023-02-06T12:53:07.521Z,4.65
2023-02-06T12:55:42.107Z,5.65
2023-02-06T12:58:43.507Z,7.13
2023-02-06T13:01:25.783Z,6.68
2023-02-06T13:03:58.511Z,6.72
2023-02-06T13:06:54.555Z,8.07
2023-02-06T13:09:41.910Z,7.13
2023-02-06T13:12:26.498Z,8.00
2023-02-06T13:14:56.292Z,8.45
2023-02-06T13:17:28.689Z,7.45
2023-02-06T13:20:10.544Z,7.65
2023-02-06T13:22:40.536Z,7.18
2023-02-06T13:25:37.902Z,7.28
2023-02-06T13:28:30.116Z,7.03
2023-02-06T13:31:08.632Z,7.25
2023-02-06T13:33:43.785Z,7.63
2023-02-06T13:36:38.660Z,7.13
2023-02-06T13:39:27.954Z,8.10
2023-02-06T13:41:59.328Z,7.97
2023-02-06T13:44:38.237Z,8.48
2023-02-06T13:47:23.711Z,8.20
2023-02-06T13:50:03.963Z,9.07
2023-02-06T13:53:06.173Z,7.30
2023-02-06T13:55:44.228Z,7.68
2023-02-06T13:58:39.278Z,6.97
2023-02-06T14:01:19.231Z,6.95
2023-02-06T14:03:52.229Z,6.63
2023-02-06T14:06:36.357Z,7.30
2023-02-06T14:09:10.235Z,7.38
2023-02-06T14:15:05.231Z,6.93
2023-02-06T14:17:40.271Z,6.30
2023-02-06T14:20:38.249Z,6.47
2023-02-06T14:23:25.952Z,6.05
2023-02-06T14:26:07.702Z,5.63
2023-02-06T14:28:54.904Z,6.10
2023-02-06T14:31:39.633Z,5.63
2023-02-06T14:34:30.647Z,5.00
2023-02-06T14:37:23.701Z,5.07
2023-02-06T14:40:04.462Z,5.25
2023-02-06T14:42:42.455Z,5.72
2023-02-06T14:45:40.888Z,5.50
2023-02-06T14:48:24.098Z,5.15
2023-02-06T14:50:57.018Z,5.78
2023-02-06T14:53:45.272Z,6.10
2023-02-06T14:56:24.980Z,5.00
2023-02-06T14:59:11.571Z,5.18
2023-02-06T15:01:49.458Z,5.07
2023-02-06T15:04:25.779Z,4.88
2023-02-06T15:06:57.050Z,5.43
2023-02-06T15:12:01.181Z,5.03
2023-02-06T15:14:32.400Z,5.28
2023-02-06T15:17:02.190Z,5.03
2023-02-06T15:19:39.624Z,4.57
2023-02-06T15:22:29.180Z,5.07
2023-02-06T15:25:25.208Z,5.25
2023-02-06T15:28:02.679Z,5.22
2023-02-06T15:30:58.533Z,6.78
2023-02-06T15:33:29.252Z,5.65
2023-02-06T15:36:00.351Z,5.68
2023-02-06T15:38:32.263Z,5.80
2023-02-06T15:41:07.925Z,5.78
2023-02-06T15:43:37.421Z,5.93
2023-02-06T15:46:06.400Z,11.60
2023-02-06T15:48:49.592Z,9.10
2023-02-06T15:51:36.328Z,7.88
2023-02-06T15:54:34.989Z,6.47
2023-02-06T15:57:29.397Z,6.57
2023-02-06T16:00:11.026Z,6.70
2023-02-06T16:05:35.231Z,9.07
2023-02-06T16:08:08.016Z,10.80
2023-02-06T16:10:41.501Z,7.40
2023-02-06T16:13:24.880Z,8.55
2023-02-06T16:16:22.705Z,7.28
2023-02-06T16:19:21.461Z,8.68
2023-02-06T16:22:04.414Z,7.50
2023-02-06T16:24:33.270Z,14.00
2023-02-06T16:27:09.964Z,41.63
2023-02-06T16:29:38.731Z,19.70
2023-02-06T16:32:23.322Z,11.52
2023-02-06T16:34:55.174Z,9.02
2023-02-06T16:37:27.422Z,8.77
2023-02-06T16:40:08.572Z,10.10
2023-02-06T16:42:40.134Z,14.00
2023-02-06T16:47:53.112Z,15.25
2023-02-06T16:53:01.038Z,18.08
2023-02-06T16:58:25.606Z,12.45
2023-02-06T17:01:01.052Z,12.13
2023-02-06T17:03:35.305Z,12.35
2023-02-06T17:06:05.525Z,11.02
2023-02-06T17:08:37.419Z,10.68
2023-02-06T17:11:06.308Z,9.40
2023-02-06T17:13:35.363Z,8.90
2023-02-06T17:16:17.244Z,9.38
2023-02-06T17:18:48.259Z,10.00
2023-02-06T17:21:29.539Z,11.65
2023-02-06T17:24:05.300Z,9.68
2023-02-06T17:26:34.429Z,10.35
2023-02-06T17:29:08.291Z,10.65
2023-02-06T17:31:44.672Z,10.65
2023-02-06T17:34:20.143Z,10.98
2023-02-06T17:36:56.327Z,11.30
2023-02-06T17:39:24.174Z,11.70
2023-02-06T17:41:52.474Z,9.57
2023-02-06T17:44:31.610Z,10.80
2023-02-06T17:50:18.905Z,11.73
2023-02-06T17:52:48.824Z,11.15
2023-02-06T17:55:17.327Z,10.70
2023-02-06T17:57:52.786Z,9.85
2023-02-06T18:00:21.653Z,9.30
2023-02-06T18:02:51.319Z,9.07
2023-02-06T18:05:28.062Z,9.60
2023-02-06T18:07:58.100Z,9.85
2023-02-06T18:10:26.857Z,10.18
2023-02-06T18:12:55.163Z,9.63
2023-02-06T18:15:28.431Z,10.35
2023-02-06T18:17:58.717Z,9.52
2023-02-06T18:20:32.255Z,9.82
2023-02-06T18:23:02.679Z,10.45
2023-02-06T18:25:33.009Z,10.82
2023-02-06T18:28:01.300Z,10.23
2023-02-06T18:30:30.228Z,10.75
2023-02-06T18:32:58.104Z,10.60
2023-02-06T18:35:52.494Z,11.07
2023-02-06T18:38:21.690Z,11.18
2023-02-06T18:40:53.804Z,11.35
2023-02-06T18:43:21.741Z,12.07
2023-02-06T18:45:50.526Z,12.85
2023-02-06T18:48:18.513Z,10.77
2023-02-06T18:50:49.774Z,11.57
2023-02-06T18:53:22.665Z,11.57
2023-02-06T19:01:27.473Z,12.43
2023-02-06T19:06:45.891Z,12.63
2023-02-06T19:09:23.762Z,12.75
2023-02-06T19:11:53.767Z,12.68
2023-02-06T19:14:30.993Z,13.27
2023-02-06T19:17:11.098Z,12.15
2023-02-06T19:19:43.160Z,12.20
2023-02-06T19:22:25.750Z,12.45
2023-02-06T19:24:58.360Z,12.40
2023-02-06T19:27:29.522Z,12.90
2023-02-06T19:30:06.081Z,13.00
2023-02-06T19:32:36.350Z,12.40
2023-02-06T19:35:07.454Z,12.30
2023-02-06T19:37:35.492Z,11.32
2023-02-06T19:40:07.849Z,12.65
2023-02-06T19:42:41.449Z,12.35
2023-02-06T19:45:09.605Z,12.98
2023-02-06T19:47:38.495Z,10.55
2023-02-06T19:50:11.586Z,11.05
2023-02-06T19:52:42.421Z,10.65
2023-02-06T19:55:10.499Z,10.68
2023-02-06T19:57:39.775Z,10.95
2023-02-06T20:00:09.304Z,10.85
2023-02-06T20:02:40.396Z,10.38
2023-02-06T20:05:16.506Z,11.88
2023-02-06T20:07:44.945Z,11.32
2023-02-06T20:10:32.680Z,12.00
2023-02-06T20:13:07.144Z,12.43
2023-02-06T20:15:49.276Z,11.35
2023-02-06T20:18:22.331Z,11.65
2023-02-06T20:20:56.813Z,12.38
2023-02-06T20:23:29.015Z,10.68
2023-02-06T20:26:01.993Z,11.98
2023-02-06T20:28:31.930Z,10.60
2023-02-06T20:31:08.785Z,11.60
2023-02-06T20:33:39.968Z,11.88
2023-02-06T20:36:12.422Z,11.18
2023-02-06T20:38:41.825Z,10.60
2023-02-06T20:41:19.606Z,11.55
2023-02-06T20:43:48.221Z,10.02
2023-02-06T20:46:22.868Z,11.00
2023-02-06T20:48:54.842Z,10.10
2023-02-06T20:51:22.959Z,11.15
2023-02-06T20:53:51.612Z,9.65
2023-02-06T20:56:33.044Z,10.00
2023-02-06T21:02:18.242Z,8.80
2023-02-06T21:04:47.309Z,10.15
2023-02-06T21:07:17.347Z,9.88
2023-02-06T21:09:51.705Z,10.07
2023-02-06T21:12:19.740Z,11.05
2023-02-06T21:14:48.656Z,11.13
2023-02-06T21:17:16.498Z,10.95
2023-02-06T21:19:46.406Z,10.07
2023-02-06T21:22:31.988Z,9.75
2023-02-06T21:28:28.806Z,9.88
2023-02-06T21:31:07.641Z,10.10
2023-02-06T21:33:46.855Z,10.52
2023-02-06T21:36:29.399Z,10.40
2023-02-06T21:42:16.805Z,10.50
2023-02-06T21:44:45.857Z,10.43
2023-02-06T21:47:15.597Z,10.23
2023-02-06T21:49:54.222Z,11.00
2023-02-06T21:52:39.153Z,10.10
2023-02-06T21:55:07.716Z,10.73
2023-02-06T21:57:35.837Z,13.23
2023-02-06T22:00:11.377Z,12.02
2023-02-06T22:02:40.963Z,11.38
2023-02-06T22:05:10.319Z,11.95
2023-02-06T22:07:41.350Z,11.63
2023-02-06T22:10:13.963Z,11.30
2023-02-06T22:12:43.201Z,11.45
2023-02-06T22:15:34.246Z,10.27
2023-02-06T22:18:05.260Z,10.70
2023-02-06T22:20:41.349Z,10.23
2023-02-06T22:23:26.398Z,11.73
2023-02-06T22:25:57.858Z,12.50
2023-02-06T22:28:26.456Z,10.57
2023-02-06T22:31:21.657Z,11.13
2023-02-06T22:34:02.966Z,11.02
2023-02-06T22:36:38.808Z,9.95
2023-02-06T22:39:16.457Z,10.68
2023-02-06T22:41:58.462Z,9.90
2023-02-06T22:44:38.596Z,9.70
2023-02-06T22:47:27.941Z,11.77
2023-02-06T22:49:57.135Z,10.38
2023-02-06T22:52:49.447Z,11.98
2023-02-06T22:55:55.267Z,12.30
2023-02-06T22:58:39.948Z,11.77
2023-02-06T23:01:13.852Z,11.85
2023-02-06T23:04:07.488Z,11.98
2023-02-06T23:06:38.413Z,11.75
2023-02-06T23:09:10.788Z,11.90
2023-02-06T23:11:46.285Z,12.80
2023-02-06T23:14:20.026Z,12.75
2023-02-06T23:17:25.180Z,13.40
2023-02-06T23:20:00.676Z,12.18
2023-02-06T23:22:40.570Z,12.60
2023-02-06T23:25:27.925Z,12.88
2023-02-06T23:28:01.809Z,13.48
2023-02-06T23:30:37.804Z,12.93
2023-02-06T23:33:16.754Z,12.55
2023-02-06T23:35:51.336Z,13.55
2023-02-06T23:38:24.235Z,11.48
2023-02-06T23:41:19.139Z,12.88
2023-02-06T23:44:24.328Z,12.13
2023-02-06T23:47:09.498Z,12.18
2023-02-06T23:49:46.134Z,11.02
2023-02-06T23:52:24.850Z,11.98
2023-02-06T23:55:02.809Z,11.30
2023-02-06T23:57:38.263Z,11.43
